| time (UTC) | temp C | wind direction | speed KPH | gust KPH | rain 1hr cm | rain 24hr cm | rain mn cm | humidity % | barometer mb |
| 20260510113208 | 7 | 11 | 3.2 | 9.7 | 0.00 | 0.48 | 0.00 | 81 | 1014.2 |
| 20260510112208 | 7 | 8 | 1.6 | 9.7 | 0.00 | 0.48 | 0.00 | 82 | 1013.9 |
| 20260510111208 | 7 | 16 | 3.2 | 9.7 | 0.00 | 0.48 | 0.00 | 80 | 1013.6 |
| 20260510110208 | 7 | 10 | 1.6 | 4.8 | 0.00 | 0.48 | 0.00 | 83 | 1013.5 |
| 20260510105207 | 7 | 17 | 0.0 | 3.2 | 0.00 | 0.48 | 0.00 | 84 | 1013.3 |
| 20260510104208 | 6 | 334 | 0.0 | 1.6 | 0.00 | 0.48 | 0.00 | 85 | 1013.0 |
| 20260510102209 | 6 | 317 | 0.0 | 1.6 | 0.00 | 0.48 | 0.00 | 86 | 1012.8 |
| 20260510101209 | 6 | 15 | 0.0 | 4.8 | 0.00 | 0.48 | 0.00 | 85 | 1012.4 |
| 20260510100208 | 6 | 3 | 1.6 | 6.4 | 0.00 | 0.48 | 0.00 | 83 | 1012.5 |
| 20260510094208 | 7 | 355 | 1.6 | 4.8 | 0.00 | 0.48 | 0.00 | 84 | 1012.0 |
| 20260510093209 | 7 | 344 | 0.0 | 4.8 | 0.00 | 0.48 | 0.00 | 86 | 1011.8 |
| 20260510092208 | 7 | 3 | 1.6 | 4.8 | 0.00 | 0.48 | 0.00 | 86 | 1011.6 |
| 20260510091208 | 7 | 332 | 0.0 | 3.2 | 0.00 | 0.48 | 0.00 | 88 | 1011.5 |
| 20260510090212 | 7 | 335 | 0.0 | 4.8 | 0.00 | 0.48 | 0.00 | 89 | 1011.6 |
| 20260510084208 | 7 | 272 | 0.0 | 3.2 | 0.00 | 0.48 | 0.00 | 92 | 1011.3 |
| 20260510083209 | 6 | 273 | 0.0 | 1.6 | 0.00 | 0.48 | 0.00 | 93 | 1011.2 |
| 20260510082208 | 7 | 269 | 0.0 | 1.6 | 0.00 | 0.48 | 0.00 | 94 | 1011.0 |
| 20260510081209 | 7 | 266 | 0.0 | 1.6 | 0.00 | 0.48 | 0.00 | 95 | 1010.8 |
| 20260510080213 | 7 | 266 | 0.0 | 1.6 | 0.00 | 0.48 | 0.00 | 95 | 1010.7 |
| 20260510075208 | 6 | 269 | 0.0 | 1.6 | 0.00 | 0.48 | 0.00 | 95 | 1010.8 |
| 20260510074208 | 6 | 295 | 0.0 | 1.6 | 0.00 | 0.48 | 0.00 | 95 | 1010.6 |
| 20260510073209 | 6 | 357 | 0.0 | 1.6 | 0.00 | 0.48 | 0.00 | 95 | 1010.3 |
| 20260510072209 | 7 | 0 | 0.0 | 0.0 | 0.00 | 0.48 | 0.00 | 96 | 1010.4 |
| 20260510071210 | 6 | 0 | 0.0 | 0.0 | 0.00 | 0.48 | 0.00 | 95 | 1010.2 |
| 20260510065208 | 6 | 335 | 0.0 | 3.2 | 0.00 | 0.48 | 0.00 | 95 | 1010.6 |
| 20260510064208 | 6 | 334 | 0.0 | 3.2 | 0.00 | 0.48 | 0.00 | 95 | 1010.3 |
| 20260510063209 | 6 | 357 | 0.0 | 1.6 | 0.00 | 0.48 | 0.00 | 95 | 1010.1 |
| 20260510062209 | 6 | 328 | 0.0 | 3.2 | 0.00 | 0.48 | 0.00 | 95 | 1009.8 |
| 20260510055208 | 7 | 295 | 0.0 | 1.6 | 0.00 | 0.48 | 0.00 | 94 | 1009.8 |
| 20260510054208 | 7 | 330 | 0.0 | 3.2 | 0.00 | 0.48 | 0.00 | 94 | 1009.9 |
| 20260510051209 | 7 | 261 | 1.6 | 3.2 | 0.00 | 0.48 | 0.00 | 94 | 1009.1 |
| 20260510045208 | 7 | 264 | 1.6 | 4.8 | 0.00 | 0.48 | 0.00 | 94 | 1008.9 |
| 20260510043209 | 7 | 326 | 0.0 | 3.2 | 0.00 | 0.48 | 0.00 | 95 | 1009.0 |
| 20260510042209 | 7 | 281 | 0.0 | 3.2 | 0.00 | 0.48 | 0.00 | 95 | 1008.6 |
| 20260510040208 | 7 | 334 | 0.0 | 1.6 | 0.00 | 0.48 | 0.00 | 95 | 1008.7 |
| 20260510035212 | 7 | 323 | 0.0 | 3.2 | 0.00 | 0.48 | 0.48 | 95 | 1008.6 |
| 20260510033208 | 8 | 13 | 1.6 | 6.4 | 0.00 | 0.48 | 0.48 | 94 | 1008.4 |
| 20260510032208 | 8 | 22 | 1.6 | 4.8 | 0.00 | 0.48 | 0.48 | 95 | 1008.2 |
| 20260510030208 | 8 | 13 | 0.0 | 3.2 | 0.00 | 0.48 | 0.48 | 94 | 1007.9 |
| 20260510024208 | 8 | 358 | 1.6 | 6.4 | 0.00 | 0.48 | 0.48 | 93 | 1008.2 |
| 20260510023208 | 8 | 350 | 1.6 | 9.7 | 0.00 | 0.48 | 0.48 | 93 | 1008.2 |
| 20260510022208 | 9 | 2 | 3.2 | 9.7 | 0.00 | 0.48 | 0.48 | 92 | 1008.2 |
| 20260510020209 | 9 | 2 | 1.6 | 6.4 | 0.00 | 0.48 | 0.48 | 92 | 1007.6 |
| 20260510015208 | 10 | 323 | 1.6 | 6.4 | 0.05 | 0.48 | 0.48 | 91 | 1007.6 |
| 20260510014208 | 10 | 283 | 1.6 | 6.4 | 0.15 | 0.48 | 0.48 | 92 | 1007.4 |
| 20260510013209 | 10 | 279 | 1.6 | 4.8 | 0.28 | 0.48 | 0.48 | 91 | 1007.2 |
| 20260510012208 | 10 | 268 | 3.2 | 14.5 | 0.48 | 0.48 | 0.48 | 91 | 1007.0 |
| 20260510011208 | 10 | 266 | 1.6 | 6.4 | 0.48 | 0.48 | 0.48 | 92 | 1007.2 |
| 20260510010208 | 10 | 286 | 3.2 | 11.3 | 0.48 | 0.48 | 0.48 | 92 | 1007.3 |
| 20260510005207 | 10 | 256 | 3.2 | 6.4 | 0.43 | 0.43 | 0.43 | 93 | 1007.0 |
| 20260510004208 | 9 | 360 | 1.6 | 9.7 | 0.33 | 0.33 | 0.33 | 92 | 1007.0 |
| 20260510002209 | 12 | 232 | 4.8 | 9.7 | 0.00 | 0.00 | 0.00 | 76 | 1006.0 |
| 20260510000208 | 13 | 225 | 4.8 | 11.3 | 0.00 | 0.00 | 0.00 | 71 | 1005.1 |
| 20260509234208 | 13 | 206 | 4.8 | 9.7 | 0.00 | 0.00 | 0.00 | 72 | 1005.0 |
| 20260509233208 | 13 | 209 | 4.8 | 9.7 | 0.00 | 0.00 | 0.00 | 71 | 1004.8 |
| 20260509232208 | 13 | 214 | 4.8 | 6.4 | 0.00 | 0.00 | 0.00 | 70 | 1005.2 |
| 20260509231208 | 13 | 205 | 4.8 | 11.3 | 0.00 | 0.00 | 0.00 | 71 | 1005.2 |
| 20260509225208 | 14 | 206 | 3.2 | 4.8 | 0.00 | 0.00 | 0.00 | 70 | 1006.0 |
| 20260509224208 | 14 | 210 | 3.2 | 6.4 | 0.00 | 0.00 | 0.00 | 70 | 1005.9 |
| 20260509222208 | 14 | 205 | 4.8 | 6.4 | 0.00 | 0.00 | 0.00 | 71 | 1006.0 |
| 20260509221208 | 14 | 210 | 4.8 | 12.9 | 0.00 | 0.00 | 0.00 | 70 | 1006.0 |
| 20260509215208 | 15 | 210 | 4.8 | 9.7 | 0.00 | 0.00 | 0.00 | 68 | 1006.0 |
| 20260509214208 | 15 | 205 | 4.8 | 9.7 | 0.00 | 0.00 | 0.00 | 68 | 1006.0 |
| 20260509213208 | 15 | 212 | 6.4 | 9.7 | 0.00 | 0.00 | 0.00 | 67 | 1006.2 |
| 20260509211208 | 15 | 212 | 6.4 | 12.9 | 0.00 | 0.00 | 0.00 | 65 | 1006.2 |
| 20260509210208 | 15 | 205 | 6.4 | 12.9 | 0.00 | 0.00 | 0.00 | 65 | 1005.8 |
| 20260509205208 | 16 | 210 | 8.0 | 17.7 | 0.00 | 0.00 | 0.00 | 64 | 1006.1 |
| 20260509203208 | 16 | 206 | 6.4 | 12.9 | 0.00 | 0.00 | 0.00 | 62 | 1006.3 |
| 20260509202208 | 16 | 210 | 8.0 | 16.1 | 0.00 | 0.00 | 0.00 | 61 | 1006.3 |
| 20260509201208 | 16 | 203 | 8.0 | 16.1 | 0.00 | 0.00 | 0.00 | 61 | 1006.6 |
| 20260509200208 | 16 | 214 | 8.0 | 16.1 | 0.00 | 0.00 | 0.00 | 62 | 1006.8 |
| 20260509195208 | 16 | 217 | 6.4 | 12.9 | 0.00 | 0.00 | 0.00 | 61 | 1007.1 |
| 20260509194208 | 16 | 219 | 6.4 | 12.9 | 0.00 | 0.00 | 0.00 | 62 | 1007.3 |
| 20260509193208 | 16 | 222 | 8.0 | 14.5 | 0.00 | 0.00 | 0.00 | 63 | 1007.1 |
| 20260509191208 | 16 | 203 | 8.0 | 16.1 | 0.00 | 0.00 | 0.00 | 56 | 1007.4 |
| 20260509185208 | 16 | 208 | 8.0 | 17.7 | 0.00 | 0.00 | 0.00 | 61 | 1007.9 |
| 20260509184207 | 16 | 214 | 8.0 | 17.7 | 0.00 | 0.00 | 0.00 | 63 | 1007.8 |
| 20260509181207 | 16 | 221 | 8.0 | 14.5 | 0.00 | 0.00 | 0.00 | 60 | 1008.4 |
| 20260509180208 | 15 | 230 | 8.0 | 14.5 | 0.00 | 0.00 | 0.00 | 63 | 1008.4 |
| 20260509173208 | 15 | 215 | 6.4 | 12.9 | 0.00 | 0.00 | 0.00 | 63 | 1008.8 |
| 20260509170208 | 15 | 234 | 6.4 | 12.9 | 0.00 | 0.00 | 0.00 | 62 | 1008.9 |
| 20260509164209 | 15 | 222 | 4.8 | 11.3 | 0.00 | 0.00 | 0.00 | 62 | 1008.9 |
| 20260509162209 | 14 | 246 | 4.8 | 11.3 | 0.00 | 0.00 | 0.00 | 63 | 1009.4 |
| 20260509160208 | 14 | 222 | 3.2 | 9.7 | 0.00 | 0.00 | 0.00 | 64 | 1009.8 |
| 20260509155208 | 13 | 212 | 3.2 | 9.7 | 0.00 | 0.00 | 0.00 | 65 | 1009.7 |
| 20260509153209 | 13 | 216 | 4.8 | 9.7 | 0.00 | 0.00 | 0.00 | 63 | 1010.1 |
| 20260509152208 | 13 | 216 | 4.8 | 11.3 | 0.00 | 0.00 | 0.00 | 64 | 1010.0 |
| 20260509150208 | 12 | 212 | 4.8 | 9.7 | 0.00 | 0.00 | 0.00 | 64 | 1010.3 |
| 20260509143208 | 11 | 211 | 8.0 | 14.5 | 0.00 | 0.00 | 0.00 | 67 | 1010.5 |
| 20260509141208 | 10 | 209 | 6.4 | 12.9 | 0.00 | 0.00 | 0.00 | 69 | 1010.7 |
| 20260509140209 | 10 | 207 | 6.4 | 12.9 | 0.00 | 0.00 | 0.00 | 68 | 1010.8 |
| 20260509135208 | 10 | 214 | 6.4 | 11.3 | 0.00 | 0.00 | 0.00 | 68 | 1010.9 |
| 20260509133208 | 9 | 214 | 6.4 | 14.5 | 0.00 | 0.00 | 0.00 | 69 | 1011.0 |
| 20260509132208 | 9 | 212 | 8.0 | 16.1 | 0.00 | 0.00 | 0.00 | 68 | 1011.0 |